sensor_id;sensor_type;location;lat;lon;timestamp;pressure;altitude;pressure_sealevel;temperature;humidity
49393;BME280;35268;42.642;23.308;2023-02-11T00:01:29;95513.31;;;-3.46;54.96
49393;BME280;35268;42.642;23.308;2023-02-11T00:03:55;95510.53;;;-3.45;55.07
49393;BME280;35268;42.642;23.308;2023-02-11T00:06:22;95509.34;;;-3.42;54.85
49393;BME280;35268;42.642;23.308;2023-02-11T00:08:48;95518.34;;;-3.45;54.92
49393;BME280;35268;42.642;23.308;2023-02-11T00:11:15;95520.94;;;-3.45;55.24
49393;BME280;35268;42.642;23.308;2023-02-11T00:13:42;95526.97;;;-3.44;55.13
49393;BME280;35268;42.642;23.308;2023-02-11T00:16:13;95524.91;;;-3.49;55.45
49393;BME280;35268;42.642;23.308;2023-02-11T00:18:42;95524.34;;;-3.66;55.26
49393;BME280;35268;42.642;23.308;2023-02-11T00:21:20;95524.84;;;-3.55;55.14
49393;BME280;35268;42.642;23.308;2023-02-11T00:23:46;95516.75;;;-3.60;55.06
49393;BME280;35268;42.642;23.308;2023-02-11T00:26:22;95521.34;;;-3.63;55.28
49393;BME280;35268;42.642;23.308;2023-02-11T00:28:49;95523.78;;;-3.61;55.12
49393;BME280;35268;42.642;23.308;2023-02-11T00:31:16;95518.69;;;-3.69;55.22
49393;BME280;35268;42.642;23.308;2023-02-11T00:33:43;95523.44;;;-3.73;55.18
49393;BME280;35268;42.642;23.308;2023-02-11T00:36:12;95509.91;;;-3.83;55.66
49393;BME280;35268;42.642;23.308;2023-02-11T00:38:41;95518.28;;;-3.88;55.63
49393;BME280;35268;42.642;23.308;2023-02-11T00:41:06;95513.78;;;-3.94;56.19
49393;BME280;35268;42.642;23.308;2023-02-11T00:43:32;95522.59;;;-4.10;56.47
49393;BME280;35268;42.642;23.308;2023-02-11T00:45:58;95523.41;;;-4.09;56.07
49393;BME280;35268;42.642;23.308;2023-02-11T00:48:23;95512.63;;;-4.06;56.04
49393;BME280;35268;42.642;23.308;2023-02-11T00:50:49;95507.97;;;-4.11;55.81
49393;BME280;35268;42.642;23.308;2023-02-11T00:53:14;95505.28;;;-4.03;55.72
49393;BME280;35268;42.642;23.308;2023-02-11T00:55:40;95522.69;;;-4.03;55.97
49393;BME280;35268;42.642;23.308;2023-02-11T00:58:05;95504.81;;;-4.06;56.12
49393;BME280;35268;42.642;23.308;2023-02-11T01:00:31;95500.41;;;-4.06;55.46
49393;BME280;35268;42.642;23.308;2023-02-11T01:02:56;95507.59;;;-4.08;55.39
49393;BME280;35268;42.642;23.308;2023-02-11T01:05:22;95504.03;;;-4.07;55.48
49393;BME280;35268;42.642;23.308;2023-02-11T01:07:47;95508.69;;;-4.02;55.46
49393;BME280;35268;42.642;23.308;2023-02-11T01:10:13;95505.06;;;-4.01;55.16
49393;BME280;35268;42.642;23.308;2023-02-11T01:12:39;95508.69;;;-4.02;54.94
49393;BME280;35268;42.642;23.308;2023-02-11T01:15:06;95497.97;;;-4.07;55.00
49393;BME280;35268;42.642;23.308;2023-02-11T01:17:32;95498.53;;;-4.12;55.17
49393;BME280;35268;42.642;23.308;2023-02-11T01:19:58;95495.22;;;-4.20;55.24
49393;BME280;35268;42.642;23.308;2023-02-11T01:22:23;95493.06;;;-4.32;55.79
49393;BME280;35268;42.642;23.308;2023-02-11T01:24:49;95492.34;;;-4.26;55.84
49393;BME280;35268;42.642;23.308;2023-02-11T01:27:14;95494.69;;;-4.31;55.98
49393;BME280;35268;42.642;23.308;2023-02-11T01:29:40;95497.56;;;-4.26;55.86
49393;BME280;35268;42.642;23.308;2023-02-11T01:32:06;95497.66;;;-4.34;55.95
49393;BME280;35268;42.642;23.308;2023-02-11T01:34:31;95499.38;;;-4.41;56.51
49393;BME280;35268;42.642;23.308;2023-02-11T01:36:59;95495.13;;;-4.42;56.78
49393;BME280;35268;42.642;23.308;2023-02-11T01:39:25;95494.16;;;-4.41;56.73
49393;BME280;35268;42.642;23.308;2023-02-11T01:41:52;95479.72;;;-4.44;56.81
49393;BME280;35268;42.642;23.308;2023-02-11T01:46:51;95488.03;;;-4.48;56.67
49393;BME280;35268;42.642;23.308;2023-02-11T01:49:41;95477.38;;;-4.53;56.35
49393;BME280;35268;42.642;23.308;2023-02-11T01:52:16;95482.03;;;-4.49;56.31
49393;BME280;35268;42.642;23.308;2023-02-11T01:54:51;95484.19;;;-4.52;56.58
49393;BME280;35268;42.642;23.308;2023-02-11T01:57:37;95483.13;;;-4.58;56.57
49393;BME280;35268;42.642;23.308;2023-02-11T02:00:20;95490.38;;;-4.53;56.36
49393;BME280;35268;42.642;23.308;2023-02-11T02:03:19;95485.53;;;-4.56;56.67
49393;BME280;35268;42.642;23.308;2023-02-11T02:05:57;95475.75;;;-4.54;56.60
49393;BME280;35268;42.642;23.308;2023-02-11T02:08:39;95478.00;;;-4.51;56.68
49393;BME280;35268;42.642;23.308;2023-02-11T02:11:05;95486.16;;;-4.54;56.76
49393;BME280;35268;42.642;23.308;2023-02-11T02:13:32;95480.31;;;-4.56;56.86
49393;BME280;35268;42.642;23.308;2023-02-11T02:16:01;95485.34;;;-4.55;57.09
49393;BME280;35268;42.642;23.308;2023-02-11T02:24:36;95491.69;;;-4.72;56.78
49393;BME280;35268;42.642;23.308;2023-02-11T02:40:47;95476.41;;;-5.05;56.73
49393;BME280;35268;42.642;23.308;2023-02-11T02:43:15;95469.75;;;-5.08;56.53
49393;BME280;35268;42.642;23.308;2023-02-11T02:45:41;95471.66;;;-5.01;56.30
49393;BME280;35268;42.642;23.308;2023-02-11T02:48:23;95462.78;;;-5.07;56.11
49393;BME280;35268;42.642;23.308;2023-02-11T02:50:48;95473.00;;;-5.06;56.24
49393;BME280;35268;42.642;23.308;2023-02-11T02:59:06;95481.34;;;-4.95;55.81
49393;BME280;35268;42.642;23.308;2023-02-11T03:07:11;95485.59;;;-4.94;55.93
49393;BME280;35268;42.642;23.308;2023-02-11T03:09:49;95486.22;;;-4.92;55.51
49393;BME280;35268;42.642;23.308;2023-02-11T03:12:16;95483.00;;;-4.94;55.63
49393;BME280;35268;42.642;23.308;2023-02-11T03:14:43;95483.00;;;-4.94;55.76
49393;BME280;35268;42.642;23.308;2023-02-11T03:17:09;95477.50;;;-4.99;55.44
49393;BME280;35268;42.642;23.308;2023-02-11T03:19:40;95472.91;;;-4.97;55.07
49393;BME280;35268;42.642;23.308;2023-02-11T03:22:11;95479.75;;;-4.96;55.62
49393;BME280;35268;42.642;23.308;2023-02-11T03:24:40;95477.41;;;-4.91;55.64
49393;BME280;35268;42.642;23.308;2023-02-11T03:27:10;95483.09;;;-4.88;55.02
49393;BME280;35268;42.642;23.308;2023-02-11T03:29:48;95476.72;;;-4.85;54.51
49393;BME280;35268;42.642;23.308;2023-02-11T03:32:22;95476.63;;;-4.77;54.54
49393;BME280;35268;42.642;23.308;2023-02-11T03:34:58;95466.59;;;-4.80;54.30
49393;BME280;35268;42.642;23.308;2023-02-11T03:37:37;95462.66;;;-4.76;54.29
49393;BME280;35268;42.642;23.308;2023-02-11T03:40:15;95471.88;;;-4.73;53.86
49393;BME280;35268;42.642;23.308;2023-02-11T03:42:47;95458.72;;;-4.72;53.67
49393;BME280;35268;42.642;23.308;2023-02-11T03:45:16;95463.91;;;-4.72;53.88
49393;BME280;35268;42.642;23.308;2023-02-11T03:47:46;95471.25;;;-4.75;54.05
49393;BME280;35268;42.642;23.308;2023-02-11T03:50:14;95479.53;;;-4.72;53.45
49393;BME280;35268;42.642;23.308;2023-02-11T03:52:40;95475.66;;;-4.76;53.94
49393;BME280;35268;42.642;23.308;2023-02-11T03:55:17;95469.47;;;-4.75;53.34
49393;BME280;35268;42.642;23.308;2023-02-11T03:57:42;95469.28;;;-4.73;53.33
49393;BME280;35268;42.642;23.308;2023-02-11T04:00:09;95462.81;;;-4.77;53.22
49393;BME280;35268;42.642;23.308;2023-02-11T04:02:36;95472.06;;;-4.75;53.16
49393;BME280;35268;42.642;23.308;2023-02-11T04:05:05;95483.19;;;-4.81;53.67
49393;BME280;35268;42.642;23.308;2023-02-11T04:07:31;95467.94;;;-4.84;53.72
49393;BME280;35268;42.642;23.308;2023-02-11T04:09:57;95470.25;;;-4.89;54.40
49393;BME280;35268;42.642;23.308;2023-02-11T04:12:23;95484.06;;;-4.89;54.81
49393;BME280;35268;42.642;23.308;2023-02-11T04:14:48;95469.63;;;-4.91;55.00
49393;BME280;35268;42.642;23.308;2023-02-11T04:17:14;95470.63;;;-4.92;55.51
49393;BME280;35268;42.642;23.308;2023-02-11T04:19:39;95471.31;;;-4.98;55.73
49393;BME280;35268;42.642;23.308;2023-02-11T04:22:05;95476.59;;;-5.07;55.66
49393;BME280;35268;42.642;23.308;2023-02-11T04:24:31;95481.34;;;-5.10;55.82
49393;BME280;35268;42.642;23.308;2023-02-11T04:26:57;95467.88;;;-5.14;55.58
49393;BME280;35268;42.642;23.308;2023-02-11T04:29:22;95463.13;;;-5.10;54.98
49393;BME280;35268;42.642;23.308;2023-02-11T04:31:47;95469.13;;;-5.10;54.68
49393;BME280;35268;42.642;23.308;2023-02-11T04:34:13;95471.47;;;-5.15;54.74
49393;BME280;35268;42.642;23.308;2023-02-11T04:36:39;95464.81;;;-5.17;54.85
49393;BME280;35268;42.642;23.308;2023-02-11T04:39:04;95457.84;;;-5.17;54.89
49393;BME280;35268;42.642;23.308;2023-02-11T04:41:30;95463.38;;;-5.20;54.91
49393;BME280;35268;42.642;23.308;2023-02-11T04:43:55;95459.22;;;-5.29;54.96
49393;BME280;35268;42.642;23.308;2023-02-11T04:46:21;95445.59;;;-5.31;54.32
49393;BME280;35268;42.642;23.308;2023-02-11T04:48:46;95459.84;;;-5.27;54.31
49393;BME280;35268;42.642;23.308;2023-02-11T04:51:12;95461.16;;;-5.23;54.01
49393;BME280;35268;42.642;23.308;2023-02-11T04:53:37;95453.97;;;-5.21;54.16
49393;BME280;35268;42.642;23.308;2023-02-11T04:56:03;95466.97;;;-5.21;54.16
49393;BME280;35268;42.642;23.308;2023-02-11T04:58:28;95461.78;;;-5.21;54.45
49393;BME280;35268;42.642;23.308;2023-02-11T05:00:54;95466.84;;;-5.28;54.53
49393;BME280;35268;42.642;23.308;2023-02-11T05:03:19;95455.31;;;-5.25;54.28
49393;BME280;35268;42.642;23.308;2023-02-11T05:05:45;95455.66;;;-5.28;54.06
49393;BME280;35268;42.642;23.308;2023-02-11T05:08:11;95449.19;;;-5.32;53.74
49393;BME280;35268;42.642;23.308;2023-02-11T05:10:36;95449.00;;;-5.31;54.20
49393;BME280;35268;42.642;23.308;2023-02-11T05:13:02;95449.97;;;-5.32;54.05
49393;BME280;35268;42.642;23.308;2023-02-11T05:15:28;95442.97;;;-5.31;54.16
49393;BME280;35268;42.642;23.308;2023-02-11T05:17:53;95437.78;;;-5.31;54.90
49393;BME280;35268;42.642;23.308;2023-02-11T05:20:19;95435.47;;;-5.26;54.75
49393;BME280;35268;42.642;23.308;2023-02-11T05:22:44;95439.06;;;-5.27;54.71
49393;BME280;35268;42.642;23.308;2023-02-11T05:25:10;95440.16;;;-5.21;54.71
49393;BME280;35268;42.642;23.308;2023-02-11T05:27:35;95442.41;;;-5.18;54.65
49393;BME280;35268;42.642;23.308;2023-02-11T05:30:01;95454.25;;;-5.16;54.90
49393;BME280;35268;42.642;23.308;2023-02-11T05:32:27;95453.59;;;-5.18;55.50
49393;BME280;35268;42.642;23.308;2023-02-11T05:34:52;95450.91;;;-5.25;55.51
49393;BME280;35268;42.642;23.308;2023-02-11T05:37:18;95447.50;;;-5.25;55.34
49393;BME280;35268;42.642;23.308;2023-02-11T05:39:43;95460.50;;;-5.25;55.59
49393;BME280;35268;42.642;23.308;2023-02-11T05:42:08;95453.97;;;-5.21;55.77
49393;BME280;35268;42.642;23.308;2023-02-11T05:44:34;95447.16;;;-5.22;56.07
49393;BME280;35268;42.642;23.308;2023-02-11T05:46:59;95453.78;;;-5.19;56.10
49393;BME280;35268;42.642;23.308;2023-02-11T05:49:25;95457.00;;;-5.17;55.70
49393;BME280;35268;42.642;23.308;2023-02-11T05:51:50;95451.47;;;-5.14;55.48
49393;BME280;35268;42.642;23.308;2023-02-11T05:54:16;95446.19;;;-5.21;54.89
49393;BME280;35268;42.642;23.308;2023-02-11T05:56:42;95449.41;;;-5.19;54.11
49393;BME280;35268;42.642;23.308;2023-02-11T05:59:07;95442.56;;;-5.20;54.43
49393;BME280;35268;42.642;23.308;2023-02-11T06:01:33;95442.94;;;-5.23;54.74
49393;BME280;35268;42.642;23.308;2023-02-11T06:03:59;95452.97;;;-5.20;55.10
49393;BME280;35268;42.642;23.308;2023-02-11T06:06:24;95459.09;;;-5.13;55.34
49393;BME280;35268;42.642;23.308;2023-02-11T06:08:50;95465.28;;;-5.14;55.47
49393;BME280;35268;42.642;23.308;2023-02-11T06:11:16;95456.94;;;-5.09;55.67
49393;BME280;35268;42.642;23.308;2023-02-11T06:13:42;95468.59;;;-5.05;56.02
49393;BME280;35268;42.642;23.308;2023-02-11T06:16:08;95474.91;;;-4.99;56.08
49393;BME280;35268;42.642;23.308;2023-02-11T06:18:33;95475.19;;;-4.94;55.92
49393;BME280;35268;42.642;23.308;2023-02-11T06:20:59;95468.44;;;-4.89;55.99
49393;BME280;35268;42.642;23.308;2023-02-11T06:23:25;95474.47;;;-4.88;56.98
49393;BME280;35268;42.642;23.308;2023-02-11T06:25:51;95465.03;;;-4.89;57.23
49393;BME280;35268;42.642;23.308;2023-02-11T06:28:17;95468.81;;;-4.77;56.70
49393;BME280;35268;42.642;23.308;2023-02-11T06:30:42;95465.16;;;-4.68;56.80
49393;BME280;35268;42.642;23.308;2023-02-11T06:33:08;95469.66;;;-4.61;57.30
49393;BME280;35268;42.642;23.308;2023-02-11T06:35:33;95469.56;;;-4.53;57.20
49393;BME280;35268;42.642;23.308;2023-02-11T06:38:00;95457.63;;;-4.48;57.27
49393;BME280;35268;42.642;23.308;2023-02-11T06:40:26;95464.72;;;-4.41;57.48
49393;BME280;35268;42.642;23.308;2023-02-11T06:42:51;95458.25;;;-4.31;57.28
49393;BME280;35268;42.642;23.308;2023-02-11T06:45:17;95467.31;;;-4.27;57.31
49393;BME280;35268;42.642;23.308;2023-02-11T06:47:43;95468.19;;;-4.19;57.55
49393;BME280;35268;42.642;23.308;2023-02-11T06:50:11;95477.06;;;-4.14;57.21
49393;BME280;35268;42.642;23.308;2023-02-11T06:52:37;95469.34;;;-4.07;56.90
49393;BME280;35268;42.642;23.308;2023-02-11T06:55:06;95468.19;;;-4.05;56.59
49393;BME280;35268;42.642;23.308;2023-02-11T06:57:31;95468.59;;;-4.01;56.12
49393;BME280;35268;42.642;23.308;2023-02-11T06:59:57;95472.38;;;-4.04;56.50
49393;BME280;35268;42.642;23.308;2023-02-11T07:02:22;95468.19;;;-4.05;56.99
49393;BME280;35268;42.642;23.308;2023-02-11T07:04:48;95477.25;;;-4.15;57.76
49393;BME280;35268;42.642;23.308;2023-02-11T07:07:14;95472.50;;;-4.12;57.15
49393;BME280;35268;42.642;23.308;2023-02-11T07:09:40;95471.75;;;-4.06;56.84
49393;BME280;35268;42.642;23.308;2023-02-11T07:12:05;95474.81;;;-4.02;56.54
49393;BME280;35268;42.642;23.308;2023-02-11T07:14:31;95467.06;;;-3.95;56.17
49393;BME280;35268;42.642;23.308;2023-02-11T07:16:56;95468.16;;;-3.90;54.81
49393;BME280;35268;42.642;23.308;2023-02-11T07:19:22;95468.72;;;-3.94;54.57
49393;BME280;35268;42.642;23.308;2023-02-11T07:21:47;95472.38;;;-4.04;54.38
49393;BME280;35268;42.642;23.308;2023-02-11T07:24:13;95468.19;;;-4.05;55.51
49393;BME280;35268;42.642;23.308;2023-02-11T07:26:39;95457.94;;;-4.06;55.47
49393;BME280;35268;42.642;23.308;2023-02-11T07:29:04;95449.75;;;-4.03;56.28
49393;BME280;35268;42.642;23.308;2023-02-11T07:31:30;95451.81;;;-3.98;56.52
49393;BME280;35268;42.642;23.308;2023-02-11T07:33:58;95454.22;;;-3.97;57.03
49393;BME280;35268;42.642;23.308;2023-02-11T07:36:24;95455.13;;;-3.90;55.94
49393;BME280;35268;42.642;23.308;2023-02-11T07:38:50;95444.69;;;-3.90;55.84
49393;BME280;35268;42.642;23.308;2023-02-11T07:41:18;95444.34;;;-3.87;56.00
49393;BME280;35268;42.642;23.308;2023-02-11T07:43:44;95435.53;;;-3.86;56.22
49393;BME280;35268;42.642;23.308;2023-02-11T07:46:13;95440.69;;;-3.71;55.48
49393;BME280;35268;42.642;23.308;2023-02-11T07:48:39;95440.06;;;-3.73;54.65
49393;BME280;35268;42.642;23.308;2023-02-11T07:51:19;95432.13;;;-3.65;55.08
49393;BME280;35268;42.642;23.308;2023-02-11T07:53:45;95434.88;;;-3.51;54.20
49393;BME280;35268;42.642;23.308;2023-02-11T07:56:12;95436.56;;;-3.44;53.27
49393;BME280;35268;42.642;23.308;2023-02-11T07:58:38;95434.16;;;-3.38;53.09
49393;BME280;35268;42.642;23.308;2023-02-11T08:01:08;95433.41;;;-3.32;53.27
49393;BME280;35268;42.642;23.308;2023-02-11T08:03:35;95437.25;;;-3.28;53.35
49393;BME280;35268;42.642;23.308;2023-02-11T08:06:10;95430.69;;;-3.24;52.78
49393;BME280;35268;42.642;23.308;2023-02-11T08:08:36;95427.13;;;-3.16;53.34
49393;BME280;35268;42.642;23.308;2023-02-11T08:11:09;95428.41;;;-3.06;53.43
49393;BME280;35268;42.642;23.308;2023-02-11T08:13:35;95426.25;;;-3.02;52.93
49393;BME280;35268;42.642;23.308;2023-02-11T08:16:00;95423.31;;;-2.92;52.06
49393;BME280;35268;42.642;23.308;2023-02-11T08:18:26;95426.53;;;-2.90;52.19
49393;BME280;35268;42.642;23.308;2023-02-11T08:20:51;95425.34;;;-2.88;51.09
49393;BME280;35268;42.642;23.308;2023-02-11T08:23:17;95427.16;;;-2.88;50.89
49393;BME280;35268;42.642;23.308;2023-02-11T08:25:43;95424.13;;;-2.85;50.84
49393;BME280;35268;42.642;23.308;2023-02-11T08:28:08;95439.44;;;-2.82;51.29
49393;BME280;35268;42.642;23.308;2023-02-11T08:30:34;95436.44;;;-2.79;51.18
49393;BME280;35268;42.642;23.308;2023-02-11T08:33:00;95434.22;;;-2.82;51.09
49393;BME280;35268;42.642;23.308;2023-02-11T08:35:25;95430.38;;;-2.86;50.64
49393;BME280;35268;42.642;23.308;2023-02-11T08:37:51;95432.59;;;-2.83;50.96
49393;BME280;35268;42.642;23.308;2023-02-11T08:40:17;95435.94;;;-2.89;50.03
49393;BME280;35268;42.642;23.308;2023-02-11T08:42:42;95422.28;;;-2.91;51.82
49393;BME280;35268;42.642;23.308;2023-02-11T08:45:08;95429.50;;;-2.93;52.67
49393;BME280;35268;42.642;23.308;2023-02-11T08:47:35;95428.75;;;-2.87;52.87
49393;BME280;35268;42.642;23.308;2023-02-11T08:50:00;95425.44;;;-2.74;52.54
49393;BME280;35268;42.642;23.308;2023-02-11T08:52:26;95432.06;;;-2.72;53.69
49393;BME280;35268;42.642;23.308;2023-02-11T08:54:51;95427.31;;;-2.62;53.34
49393;BME280;35268;42.642;23.308;2023-02-11T08:57:17;95445.81;;;-2.56;54.04
49393;BME280;35268;42.642;23.308;2023-02-11T08:59:42;95434.97;;;-2.53;53.60
49393;BME280;35268;42.642;23.308;2023-02-11T09:02:12;95440.22;;;-2.53;54.03
49393;BME280;35268;42.642;23.308;2023-02-11T09:04:38;95432.63;;;-2.48;55.21
49393;BME280;35268;42.642;23.308;2023-02-11T09:07:04;95440.47;;;-2.42;53.63
49393;BME280;35268;42.642;23.308;2023-02-11T09:09:29;95431.03;;;-2.43;54.22
49393;BME280;35268;42.642;23.308;2023-02-11T09:11:55;95423.25;;;-2.36;54.44
49393;BME280;35268;42.642;23.308;2023-02-11T09:14:22;95428.28;;;-2.28;53.65
49393;BME280;35268;42.642;23.308;2023-02-11T09:16:49;95423.50;;;-2.17;54.44
49393;BME280;35268;42.642;23.308;2023-02-11T09:19:15;95416.91;;;-2.07;53.79
49393;BME280;35268;42.642;23.308;2023-02-11T09:21:41;95422.94;;;-2.06;52.50
49393;BME280;35268;42.642;23.308;2023-02-11T09:24:06;95414.31;;;-2.00;52.83
49393;BME280;35268;42.642;23.308;2023-02-11T09:26:35;95419.41;;;-1.85;52.80
49393;BME280;35268;42.642;23.308;2023-02-11T09:29:01;95405.72;;;-1.87;53.60
49393;BME280;35268;42.642;23.308;2023-02-11T09:31:28;95412.59;;;-1.73;50.91
49393;BME280;35268;42.642;23.308;2023-02-11T09:33:57;95410.78;;;-1.66;50.21
49393;BME280;35268;42.642;23.308;2023-02-11T09:36:29;95411.00;;;-1.60;50.89
49393;BME280;35268;42.642;23.308;2023-02-11T09:38:57;95399.34;;;-1.58;50.34
49393;BME280;35268;42.642;23.308;2023-02-11T09:43:56;95408.41;;;-1.41;50.73
49393;BME280;35268;42.642;23.308;2023-02-11T09:46:23;95406.00;;;-1.29;50.55
49393;BME280;35268;42.642;23.308;2023-02-11T09:48:53;95402.38;;;-1.21;49.70
49393;BME280;35268;42.642;23.308;2023-02-11T09:51:53;95387.28;;;-1.19;48.89
49393;BME280;35268;42.642;23.308;2023-02-11T09:54:33;95385.50;;;-1.12;49.64
49393;BME280;35268;42.642;23.308;2023-02-11T09:57:00;95391.13;;;-1.02;50.23
49393;BME280;35268;42.642;23.308;2023-02-11T09:59:25;95381.84;;;-0.97;50.29
49393;BME280;35268;42.642;23.308;2023-02-11T10:02:03;95363.50;;;-0.84;49.27
49393;BME280;35268;42.642;23.308;2023-02-11T10:04:43;95364.06;;;-0.75;48.01
49393;BME280;35268;42.642;23.308;2023-02-11T10:07:27;95367.53;;;-0.88;47.82
49393;BME280;35268;42.642;23.308;2023-02-11T10:22:59;95328.78;;;-0.53;45.84
49393;BME280;35268;42.642;23.308;2023-02-11T10:25:33;95318.06;;;-0.45;45.97
49393;BME280;35268;42.642;23.308;2023-02-11T10:28:18;95318.66;;;-0.43;45.79
49393;BME280;35268;42.642;23.308;2023-02-11T10:33:26;95291.75;;;-0.25;44.77
49393;BME280;35268;42.642;23.308;2023-02-11T10:35:52;95286.66;;;-0.13;44.04
49393;BME280;35268;42.642;23.308;2023-02-11T10:38:18;95281.34;;;-0.06;43.37
49393;BME280;35268;42.642;23.308;2023-02-11T10:40:44;95274.22;;;0.08;43.27
49393;BME280;35268;42.642;23.308;2023-02-11T10:43:14;95262.50;;;0.10;42.67
49393;BME280;35268;42.642;23.308;2023-02-11T10:45:44;95259.19;;;0.22;43.53
49393;BME280;35268;42.642;23.308;2023-02-11T10:53:48;95246.31;;;0.45;41.62
49393;BME280;35268;42.642;23.308;2023-02-11T10:56:23;95243.59;;;0.52;40.98
49393;BME280;35268;42.642;23.308;2023-02-11T10:58:59;95248.66;;;0.53;40.45
49393;BME280;35268;42.642;23.308;2023-02-11T11:01:44;95237.13;;;0.54;40.64
49393;BME280;35268;42.642;23.308;2023-02-11T11:04:43;95233.63;;;0.60;40.72
49393;BME280;35268;42.642;23.308;2023-02-11T11:07:27;95225.63;;;0.74;40.68
49393;BME280;35268;42.642;23.308;2023-02-11T11:10:05;95237.44;;;0.83;41.02
49393;BME280;35268;42.642;23.308;2023-02-11T11:15:12;95228.47;;;0.72;41.45
49393;BME280;35268;42.642;23.308;2023-02-11T11:17:38;95227.13;;;0.63;41.48
49393;BME280;35268;42.642;23.308;2023-02-11T11:20:25;95227.22;;;0.75;42.78
49393;BME280;35268;42.642;23.308;2023-02-11T11:23:15;95227.41;;;0.80;41.10
49393;BME280;35268;42.642;23.308;2023-02-11T11:25:42;95223.44;;;0.89;41.44
49393;BME280;35268;42.642;23.308;2023-02-11T11:28:19;95220.03;;;0.89;41.19
49393;BME280;35268;42.642;23.308;2023-02-11T11:30:46;95221.78;;;0.95;42.09
49393;BME280;35268;42.642;23.308;2023-02-11T11:33:25;95228.34;;;1.04;40.94
49393;BME280;35268;42.642;23.308;2023-02-11T11:38:22;95215.19;;;1.23;41.02
49393;BME280;35268;42.642;23.308;2023-02-11T11:41:12;95214.31;;;1.29;40.82
49393;BME280;35268;42.642;23.308;2023-02-11T11:43:37;95211.81;;;1.34;40.78
49393;BME280;35268;42.642;23.308;2023-02-11T11:46:03;95208.66;;;1.44;40.10
49393;BME280;35268;42.642;23.308;2023-02-11T11:48:33;95206.19;;;1.49;40.88
49393;BME280;35268;42.642;23.308;2023-02-11T11:51:08;95206.09;;;1.55;39.96
49393;BME280;35268;42.642;23.308;2023-02-11T11:53:59;95191.84;;;1.63;41.21
49393;BME280;35268;42.642;23.308;2023-02-11T11:56:31;95201.44;;;1.69;40.45
49393;BME280;35268;42.642;23.308;2023-02-11T11:59:05;95192.41;;;1.77;40.27
49393;BME280;35268;42.642;23.308;2023-02-11T12:26:35;95148.22;;;2.09;38.17
49393;BME280;35268;42.642;23.308;2023-02-11T12:37:03;95130.31;;;2.18;36.27
49393;BME280;35268;42.642;23.308;2023-02-11T12:42:27;95118.63;;;2.26;35.85
49393;BME280;35268;42.642;23.308;2023-02-11T12:56:04;95114.19;;;2.78;37.10
49393;BME280;35268;42.642;23.308;2023-02-11T12:58:33;95100.53;;;2.93;37.29
49393;BME280;35268;42.642;23.308;2023-02-11T13:01:03;95099.53;;;3.11;36.82
49393;BME280;35268;42.642;23.308;2023-02-11T13:03:38;95104.34;;;3.14;35.30
49393;BME280;35268;42.642;23.308;2023-02-11T13:06:08;95104.19;;;3.21;36.14
49393;BME280;35268;42.642;23.308;2023-02-11T13:08:45;95095.44;;;3.32;35.75
49393;BME280;35268;42.642;23.308;2023-02-11T13:11:16;95095.22;;;3.51;36.29
49393;BME280;35268;42.642;23.308;2023-02-11T13:13:55;95090.03;;;3.56;34.72
49393;BME280;35268;42.642;23.308;2023-02-11T13:16:43;95088.06;;;3.63;34.40
49393;BME280;35268;42.642;23.308;2023-02-11T13:22:02;95091.66;;;3.74;34.00
49393;BME280;35268;42.642;23.308;2023-02-11T13:30:19;95087.72;;;3.76;34.69
49393;BME280;35268;42.642;23.308;2023-02-11T13:35:31;95083.97;;;3.72;33.88
49393;BME280;35268;42.642;23.308;2023-02-11T13:37:58;95079.25;;;3.74;34.47
49393;BME280;35268;42.642;23.308;2023-02-11T13:40:26;95072.00;;;3.81;34.80
49393;BME280;35268;42.642;23.308;2023-02-11T13:42:55;95082.78;;;3.97;34.44
49393;BME280;35268;42.642;23.308;2023-02-11T13:47:57;95072.63;;;3.89;33.61
49393;BME280;35268;42.642;23.308;2023-02-11T13:50:25;95076.31;;;3.88;33.62
49393;BME280;35268;42.642;23.308;2023-02-11T13:53:02;95065.34;;;3.96;34.10
49393;BME280;35268;42.642;23.308;2023-02-11T13:55:29;95059.44;;;4.06;33.55
49393;BME280;35268;42.642;23.308;2023-02-11T14:09:07;95045.69;;;4.04;32.27
49393;BME280;35268;42.642;23.308;2023-02-11T14:19:40;95048.22;;;4.15;32.24
49393;BME280;35268;42.642;23.308;2023-02-11T14:22:12;95040.03;;;4.17;32.42
49393;BME280;35268;42.642;23.308;2023-02-11T14:24:47;95045.59;;;4.15;33.05
49393;BME280;35268;42.642;23.308;2023-02-11T14:30:47;95038.59;;;4.26;32.66
49393;BME280;35268;42.642;23.308;2023-02-11T14:38:54;95039.63;;;3.69;33.88
49393;BME280;35268;42.642;23.308;2023-02-11T14:41:24;95038.81;;;3.52;34.64
49393;BME280;35268;42.642;23.308;2023-02-11T14:43:53;95034.44;;;3.40;34.96
49393;BME280;35268;42.642;23.308;2023-02-11T14:46:22;95040.44;;;3.36;35.19
49393;BME280;35268;42.642;23.308;2023-02-11T14:48:51;95034.00;;;3.15;35.93
49393;BME280;35268;42.642;23.308;2023-02-11T14:51:27;95032.25;;;3.04;36.44
49393;BME280;35268;42.642;23.308;2023-02-11T14:53:58;95042.59;;;2.93;37.08
49393;BME280;35268;42.642;23.308;2023-02-11T14:56:27;95042.41;;;2.83;37.42
49393;BME280;35268;42.642;23.308;2023-02-11T14:58:56;95032.47;;;2.73;37.64
49393;BME280;35268;42.642;23.308;2023-02-11T15:03:51;95032.88;;;2.53;37.93
49393;BME280;35268;42.642;23.308;2023-02-11T15:06:36;95030.63;;;2.45;38.12
49393;BME280;35268;42.642;23.308;2023-02-11T15:09:03;95038.31;;;2.35;38.63
49393;BME280;35268;42.642;23.308;2023-02-11T15:11:37;95030.88;;;2.32;39.18
49393;BME280;35268;42.642;23.308;2023-02-11T15:14:25;95026.53;;;2.26;39.79
49393;BME280;35268;42.642;23.308;2023-02-11T15:16:57;95023.03;;;2.20;39.92
49393;BME280;35268;42.642;23.308;2023-02-11T15:19:33;95021.41;;;2.07;39.73
49393;BME280;35268;42.642;23.308;2023-02-11T15:22:04;95011.25;;;1.99;39.74
49393;BME280;35268;42.642;23.308;2023-02-11T15:24:32;95012.19;;;1.93;40.03
49393;BME280;35268;42.642;23.308;2023-02-11T15:27:10;94999.16;;;1.86;40.54
49393;BME280;35268;42.642;23.308;2023-02-11T15:29:44;95005.13;;;1.82;40.89
49393;BME280;35268;42.642;23.308;2023-02-11T15:32:16;94995.84;;;1.79;41.10
49393;BME280;35268;42.642;23.308;2023-02-11T15:34:43;94997.91;;;1.77;41.70
49393;BME280;35268;42.642;23.308;2023-02-11T15:37:24;94997.44;;;1.68;41.82